Time;durP1;ratioP1;P1;durP2;ratioP2;P2;SDS_P1;SDS_P2;PMS_P1;PMS_P2;Temp;Humidity;BMP_temperature;BMP_pressure;BME280_temperature;BME280_humidity;BME280_pressure;Samples;Min_cycle;Max_cycle;Signal;HPM_P1;HPM_P2
2021/01/09 00:00:38;;;;;;;14.48;10.02;;;;;;;;;;6224724;23;20030;-89
2021/01/09 00:03:04;;;;;;;13.75;9.35;;;;;;;;;;6222828;23;20325;-89
2021/01/09 00:05:35;;;;;;;14.88;9.32;;;;;;;;;;6248429;23;20031;-88
2021/01/09 00:08:01;;;;;;;14.50;9.23;;;;;;;;;;6221970;23;20032;-88
2021/01/09 00:10:28;;;;;;;13.10;9.10;;;;;;;;;;6224293;23;20054;-88
2021/01/09 00:12:54;;;;;;;13.27;9.82;;;;;;;;;;6222192;23;20413;-88
2021/01/09 00:15:21;;;;;;;12.35;8.75;;;;;;;;;;6222121;23;20069;-88
2021/01/09 00:17:47;;;;;;;12.05;8.25;;;;;;;;;;6222810;23;20024;-89
2021/01/09 00:20:13;;;;;;;14.15;9.40;;;;;;;;;;6222829;23;20024;-88
2021/01/09 00:22:43;;;;;;;11.93;8.43;;;;;;;;;;6250321;23;20047;-88
2021/01/09 00:25:10;;;;;;;16.25;9.40;;;;;;;;;;6224125;23;20020;-89
2021/01/09 00:27:36;;;;;;;14.13;9.68;;;;;;;;;;6251020;23;20032;-88
2021/01/09 00:30:06;;;;;;;11.48;8.35;;;;;;;;;;6223847;23;20028;-88
2021/01/09 00:32:32;;;;;;;15.10;9.20;;;;;;;;;;6249942;23;20031;-88
2021/01/09 00:34:58;;;;;;;16.33;10.27;;;;;;;;;;6248672;23;20051;-88
2021/01/09 00:37:25;;;;;;;17.48;10.73;;;;;;;;;;6222808;23;20244;-88
2021/01/09 00:39:51;;;;;;;18.67;10.27;;;;;;;;;;6249331;23;20038;-88
2021/01/09 00:42:17;;;;;;;12.95;8.98;;;;;;;;;;6250309;23;20201;-88
2021/01/09 00:44:43;;;;;;;14.65;8.45;;;;;;;;;;6222851;23;20024;-88
2021/01/09 00:47:09;;;;;;;13.77;8.90;;;;;;;;;;6223776;23;20024;-88
2021/01/09 00:49:35;;;;;;;9.80;7.00;;;;;;;;;;6224687;23;20388;-88
2021/01/09 00:52:01;;;;;;;11.88;7.10;;;;;;;;;;6223269;23;20106;-88
2021/01/09 00:54:28;;;;;;;10.02;6.85;;;;;;;;;;6224556;23;20105;-88
2021/01/09 00:56:54;;;;;;;10.57;6.82;;;;;;;;;;6223713;23;20098;-88
2021/01/09 00:59:23;;;;;;;10.00;7.40;;;;;;;;;;6222886;23;20031;-88
2021/01/09 01:01:49;;;;;;;11.63;7.63;;;;;;;;;;6247414;23;20331;-88
2021/01/09 01:04:16;;;;;;;12.07;6.38;;;;;;;;;;6250291;23;20345;-88
2021/01/09 01:06:48;;;;;;;13.02;7.43;;;;;;;;;;6223922;23;20023;-87
2021/01/09 01:09:17;;;;;;;12.35;7.78;;;;;;;;;;6223279;23;20280;-88
2021/01/09 01:11:43;;;;;;;10.65;7.30;;;;;;;;;;6222161;23;20345;-89
2021/01/09 01:14:10;;;;;;;10.60;6.97;;;;;;;;;;6247674;23;20110;-88
2021/01/09 01:16:43;;;;;;;10.43;6.82;;;;;;;;;;6248564;23;20361;-88
2021/01/09 01:19:14;;;;;;;10.57;6.32;;;;;;;;;;6221968;23;20020;-88
2021/01/09 01:21:42;;;;;;;9.50;6.53;;;;;;;;;;6222947;23;20035;-88
2021/01/09 01:24:09;;;;;;;10.68;7.93;;;;;;;;;;6222635;23;20031;-88
2021/01/09 01:26:35;;;;;;;13.38;8.90;;;;;;;;;;6221415;23;20131;-88
2021/01/09 01:29:03;;;;;;;13.65;8.10;;;;;;;;;;6221926;23;20384;-88
2021/01/09 01:31:30;;;;;;;11.23;6.90;;;;;;;;;;6249627;23;20078;-88
2021/01/09 01:33:56;;;;;;;13.25;8.63;;;;;;;;;;6225688;23;20047;-88
2021/01/09 01:36:23;;;;;;;13.52;8.48;;;;;;;;;;6236940;22;20027;-88
2021/01/09 01:38:49;;;;;;;12.57;8.48;;;;;;;;;;6243918;22;20016;-86
2021/01/09 01:41:15;;;;;;;11.45;7.90;;;;;;;;;;6227618;23;20105;-88
2021/01/09 01:43:42;;;;;;;13.02;8.13;;;;;;;;;;6253551;23;20071;-88
2021/01/09 01:46:09;;;;;;;12.68;8.05;;;;;;;;;;6241883;23;20023;-89
2021/01/09 01:48:38;;;;;;;15.05;9.02;;;;;;;;;;6269241;23;20012;-89
2021/01/09 01:51:05;;;;;;;11.68;7.88;;;;;;;;;;6242987;23;20016;-88
2021/01/09 01:53:31;;;;;;;13.13;8.90;;;;;;;;;;6267118;22;20023;-89
2021/01/09 01:55:58;;;;;;;11.88;8.27;;;;;;;;;;6225704;23;20055;-88
2021/01/09 01:58:24;;;;;;;13.73;8.80;;;;;;;;;;6225737;23;20024;-88
2021/01/09 02:00:50;;;;;;;13.80;8.77;;;;;;;;;;6223660;23;20024;-89
2021/01/09 02:03:21;;;;;;;12.13;7.82;;;;;;;;;;6224931;23;20287;-89
2021/01/09 02:05:49;;;;;;;12.98;8.32;;;;;;;;;;6251253;23;20148;-88
2021/01/09 02:08:17;;;;;;;14.50;8.70;;;;;;;;;;6224361;23;20074;-89
2021/01/09 02:10:45;;;;;;;13.20;8.32;;;;;;;;;;6262666;23;20012;-88
2021/01/09 02:13:19;;;;;;;13.40;9.23;;;;;;;;;;6250378;23;20024;-88
2021/01/09 02:15:48;;;;;;;14.82;9.10;;;;;;;;;;6251925;23;20067;-88
2021/01/09 02:18:16;;;;;;;14.70;9.60;;;;;;;;;;6264792;22;20016;-89
2021/01/09 02:20:44;;;;;;;13.57;9.05;;;;;;;;;;6242492;23;20260;-88
2021/01/09 02:23:10;;;;;;;15.05;9.32;;;;;;;;;;6243433;22;20035;-88
2021/01/09 02:25:38;;;;;;;13.98;8.90;;;;;;;;;;6269938;22;20042;-85
2021/01/09 02:28:04;;;;;;;13.75;9.27;;;;;;;;;;6268218;22;20083;-88
2021/01/09 02:30:33;;;;;;;13.48;8.95;;;;;;;;;;6258465;23;20024;-88
2021/01/09 02:33:04;;;;;;;14.15;9.20;;;;;;;;;;6252217;23;20075;-88
2021/01/09 02:35:32;;;;;;;15.05;8.93;;;;;;;;;;6235657;23;20036;-88
2021/01/09 02:37:58;;;;;;;12.70;8.98;;;;;;;;;;6242506;23;20028;-88
2021/01/09 02:40:24;;;;;;;14.77;8.32;;;;;;;;;;6239946;23;20111;-88
2021/01/09 02:42:50;;;;;;;17.50;9.15;;;;;;;;;;6255093;23;20032;-89
2021/01/09 02:45:17;;;;;;;15.25;8.75;;;;;;;;;;6254678;23;20039;-89
2021/01/09 02:47:43;;;;;;;13.77;8.25;;;;;;;;;;6261130;23;20040;-89
2021/01/09 02:50:12;;;;;;;14.38;9.05;;;;;;;;;;6268341;22;20024;-89
2021/01/09 02:52:41;;;;;;;15.25;8.15;;;;;;;;;;6234042;23;20024;-89
2021/01/09 02:55:08;;;;;;;12.98;8.52;;;;;;;;;;6250595;23;20060;-89
2021/01/09 02:57:34;;;;;;;12.73;8.68;;;;;;;;;;6223670;23;20361;-89
2021/01/09 03:00:03;;;;;;;13.00;8.50;;;;;;;;;;6225177;23;20052;-89
2021/01/09 03:02:31;;;;;;;14.48;9.25;;;;;;;;;;6223895;23;20030;-85
2021/01/09 03:04:58;;;;;;;11.85;8.20;;;;;;;;;;6222942;23;20103;-85
2021/01/09 03:07:28;;;;;;;12.05;8.73;;;;;;;;;;6223769;23;20111;-85
2021/01/09 03:09:54;;;;;;;12.00;8.93;;;;;;;;;;6225288;23;20036;-85
2021/01/09 03:12:21;;;;;;;12.02;8.50;;;;;;;;;;6225086;23;20032;-85
2021/01/09 03:14:47;;;;;;;13.88;9.32;;;;;;;;;;6224237;23;20102;-85
2021/01/09 03:17:13;;;;;;;11.43;8.25;;;;;;;;;;6224719;23;20035;-85
2021/01/09 03:19:40;;;;;;;14.02;9.18;;;;;;;;;;6224297;23;20035;-85
2021/01/09 03:22:06;;;;;;;12.20;8.77;;;;;;;;;;6248686;23;20024;-85
2021/01/09 03:24:32;;;;;;;15.25;8.73;;;;;;;;;;6223513;23;20349;-88
2021/01/09 03:26:58;;;;;;;14.68;9.55;;;;;;;;;;6248764;23;20063;-88
2021/01/09 03:29:25;;;;;;;12.63;8.57;;;;;;;;;;6225951;23;20039;-87
2021/01/09 03:31:51;;;;;;;12.77;8.43;;;;;;;;;;6222847;23;20089;-88
2021/01/09 03:34:17;;;;;;;15.40;8.77;;;;;;;;;;6223348;23;20024;-88
2021/01/09 03:36:43;;;;;;;16.48;10.18;;;;;;;;;;6251989;23;20453;-88
2021/01/09 03:39:10;;;;;;;15.18;8.40;;;;;;;;;;6225927;23;20103;-87
2021/01/09 03:41:36;;;;;;;15.68;9.35;;;;;;;;;;6225591;23;20024;-88
2021/01/09 03:44:02;;;;;;;16.25;9.20;;;;;;;;;;6226518;23;20299;-88
2021/01/09 03:46:28;;;;;;;16.10;8.88;;;;;;;;;;6252416;23;20016;-88
2021/01/09 03:48:54;;;;;;;17.02;9.65;;;;;;;;;;6226218;23;20027;-87
2021/01/09 03:51:20;;;;;;;14.80;8.98;;;;;;;;;;6252920;23;20587;-87
2021/01/09 03:53:48;;;;;;;14.13;8.68;;;;;;;;;;6252241;22;20039;-88
2021/01/09 03:56:16;;;;;;;13.60;8.70;;;;;;;;;;6227461;23;20339;-87
2021/01/09 03:58:42;;;;;;;12.50;8.63;;;;;;;;;;6225176;23;20352;-87
2021/01/09 04:01:08;;;;;;;13.65;8.52;;;;;;;;;;6224998;23;20047;-87
2021/01/09 04:03:35;;;;;;;14.30;8.93;;;;;;;;;;6225312;23;20036;-88
2021/01/09 04:06:02;;;;;;;12.63;9.15;;;;;;;;;;6251127;23;20377;-89
2021/01/09 04:08:31;;;;;;;15.77;9.23;;;;;;;;;;6251079;23;20376;-88
2021/01/09 04:10:59;;;;;;;11.00;7.88;;;;;;;;;;6224962;23;20107;-88
2021/01/09 04:13:26;;;;;;;12.90;7.90;;;;;;;;;;6228270;23;20414;-87
2021/01/09 04:15:52;;;;;;;14.70;8.43;;;;;;;;;;6227145;23;20023;-87
2021/01/09 04:18:18;;;;;;;17.42;8.63;;;;;;;;;;6225881;23;20118;-87
2021/01/09 04:20:47;;;;;;;13.63;9.32;;;;;;;;;;6251677;23;20072;-88
2021/01/09 04:23:15;;;;;;;14.05;8.75;;;;;;;;;;6254436;23;20107;-88
2021/01/09 04:25:41;;;;;;;13.45;8.32;;;;;;;;;;6251691;23;20318;-88
2021/01/09 04:28:13;;;;;;;10.85;8.38;;;;;;;;;;6225668;23;20024;-88
2021/01/09 04:30:42;;;;;;;15.07;8.60;;;;;;;;;;6259071;23;20012;-88
2021/01/09 04:33:08;;;;;;;11.32;7.60;;;;;;;;;;6270292;22;20012;-88
2021/01/09 04:35:34;;;;;;;14.60;9.35;;;;;;;;;;6233715;23;20052;-88
2021/01/09 04:38:03;;;;;;;13.68;8.55;;;;;;;;;;6250976;23;20025;-88
2021/01/09 04:40:32;;;;;;;13.60;8.18;;;;;;;;;;6225422;23;20024;-88
2021/01/09 04:42:58;;;;;;;12.85;8.95;;;;;;;;;;6250418;23;20051;-88
2021/01/09 04:45:25;;;;;;;15.13;8.85;;;;;;;;;;6224511;23;20024;-88
2021/01/09 04:47:51;;;;;;;12.15;8.52;;;;;;;;;;6249446;23;20035;-88
2021/01/09 04:50:18;;;;;;;16.35;8.35;;;;;;;;;;6250211;23;20356;-88
2021/01/09 04:52:45;;;;;;;11.48;8.02;;;;;;;;;;6223279;23;20024;-88
2021/01/09 04:55:11;;;;;;;11.93;7.90;;;;;;;;;;6223153;23;20028;-88
2021/01/09 04:57:38;;;;;;;10.95;7.93;;;;;;;;;;6249371;23;20213;-88
2021/01/09 05:00:05;;;;;;;14.88;8.73;;;;;;;;;;6249493;23;20359;-88
2021/01/09 05:02:33;;;;;;;12.40;8.38;;;;;;;;;;6223899;23;20032;-89
2021/01/09 05:04:59;;;;;;;14.35;7.97;;;;;;;;;;6257983;23;20148;-89
2021/01/09 05:07:26;;;;;;;14.38;8.68;;;;;;;;;;6241561;23;20028;-88
2021/01/09 05:09:58;;;;;;;11.90;7.95;;;;;;;;;;6242507;23;20035;-88
2021/01/09 05:12:28;;;;;;;12.90;8.40;;;;;;;;;;6241592;23;20039;-88
2021/01/09 05:14:55;;;;;;;13.15;8.60;;;;;;;;;;6242958;23;20063;-87
2021/01/09 05:17:23;;;;;;;16.98;7.53;;;;;;;;;;6232687;23;20056;-88
2021/01/09 05:19:49;;;;;;;11.43;7.97;;;;;;;;;;6252047;23;20024;-88
2021/01/09 05:22:15;;;;;;;15.52;8.93;;;;;;;;;;6224742;23;20040;-88
2021/01/09 05:24:45;;;;;;;12.00;7.78;;;;;;;;;;6224354;23;20285;-88
2021/01/09 05:27:15;;;;;;;12.43;7.22;;;;;;;;;;6224176;23;20376;-88
2021/01/09 05:29:42;;;;;;;12.00;8.18;;;;;;;;;;6224065;23;20036;-88
2021/01/09 05:32:08;;;;;;;12.63;7.60;;;;;;;;;;6223173;23;20082;-88
2021/01/09 05:34:43;;;;;;;12.13;8.27;;;;;;;;;;6249818;23;20067;-88
2021/01/09 05:37:23;;;;;;;12.85;7.93;;;;;;;;;;6223171;23;20119;-88
2021/01/09 05:39:49;;;;;;;12.48;7.55;;;;;;;;;;6222960;23;20315;-88
2021/01/09 05:42:16;;;;;;;10.70;7.03;;;;;;;;;;6221406;23;20385;-88
2021/01/09 05:44:43;;;;;;;12.73;8.23;;;;;;;;;;6222549;23;20078;-88
2021/01/09 05:47:13;;;;;;;11.30;7.38;;;;;;;;;;6249753;23;20135;-88
2021/01/09 05:49:43;;;;;;;10.30;7.50;;;;;;;;;;6222834;23;20085;-88
2021/01/09 05:52:10;;;;;;;11.85;7.85;;;;;;;;;;6224176;23;20040;-88
2021/01/09 05:54:37;;;;;;;14.95;8.43;;;;;;;;;;6224701;23;20062;-90
2021/01/09 05:57:05;;;;;;;11.82;7.40;;;;;;;;;;6247992;23;20024;-89
2021/01/09 05:59:32;;;;;;;10.15;7.47;;;;;;;;;;6221413;23;20036;-90
2021/01/09 06:01:59;;;;;;;10.95;7.00;;;;;;;;;;6249569;23;20405;-90
2021/01/09 06:04:27;;;;;;;11.02;7.03;;;;;;;;;;6223747;23;20027;-86
2021/01/09 06:07:04;;;;;;;16.10;7.72;;;;;;;;;;6249787;23;20082;-86
2021/01/09 06:09:36;;;;;;;11.27;7.45;;;;;;;;;;6223107;23;20331;-85
2021/01/09 06:12:06;;;;;;;10.93;6.57;;;;;;;;;;6256222;22;20035;-86
2021/01/09 06:14:36;;;;;;;10.80;7.57;;;;;;;;;;6241840;22;20086;-85
2021/01/09 06:17:06;;;;;;;10.55;7.18;;;;;;;;;;6266584;22;20012;-85
2021/01/09 06:19:35;;;;;;;9.57;7.20;;;;;;;;;;6248571;23;20024;-85
2021/01/09 06:22:02;;;;;;;10.73;7.18;;;;;;;;;;6219823;23;20107;-86
2021/01/09 06:24:28;;;;;;;11.98;6.85;;;;;;;;;;6249304;23;20032;-86
2021/01/09 06:27:02;;;;;;;10.52;6.80;;;;;;;;;;6265102;22;20079;-86
2021/01/09 06:29:29;;;;;;;11.20;7.32;;;;;;;;;;6232665;23;20024;-86
2021/01/09 06:32:06;;;;;;;9.95;6.88;;;;;;;;;;6223570;23;20035;-86
2021/01/09 06:34:38;;;;;;;10.25;7.22;;;;;;;;;;6249432;23;20059;-86
2021/01/09 06:37:10;;;;;;;9.45;7.22;;;;;;;;;;6222519;23;20024;-86
2021/01/09 06:39:40;;;;;;;10.55;6.80;;;;;;;;;;6247552;23;20067;-86
2021/01/09 06:42:08;;;;;;;10.52;6.93;;;;;;;;;;6248235;23;20106;-85
2021/01/09 06:44:35;;;;;;;12.98;7.88;;;;;;;;;;6221678;23;20274;-86
2021/01/09 06:47:02;;;;;;;10.10;7.07;;;;;;;;;;6249855;23;20412;-86
2021/01/09 06:49:29;;;;;;;11.20;7.38;;;;;;;;;;6220581;23;20063;-86
2021/01/09 06:52:02;;;;;;;11.20;7.07;;;;;;;;;;6222162;23;20444;-86
2021/01/09 06:54:41;;;;;;;10.35;7.18;;;;;;;;;;6221283;23;20035;-85
2021/01/09 06:57:13;;;;;;;11.30;6.90;;;;;;;;;;6249027;23;20079;-86
2021/01/09 06:59:41;;;;;;;11.50;7.05;;;;;;;;;;6248782;23;20025;-85
2021/01/09 07:02:11;;;;;;;11.45;6.65;;;;;;;;;;6223250;23;20038;-86
2021/01/09 07:04:50;;;;;;;10.68;7.28;;;;;;;;;;6225189;23;20056;-86
2021/01/09 07:07:35;;;;;;;12.68;7.05;;;;;;;;;;6221563;23;20083;-86
2021/01/09 07:10:08;;;;;;;12.13;7.70;;;;;;;;;;6247686;23;20031;-86
2021/01/09 07:12:39;;;;;;;10.98;6.53;;;;;;;;;;6225342;23;20497;-86
2021/01/09 07:15:09;;;;;;;10.95;7.03;;;;;;;;;;6223342;23;20028;-86
2021/01/09 07:17:40;;;;;;;11.48;7.35;;;;;;;;;;6252057;23;20028;-85
2021/01/09 07:20:07;;;;;;;16.90;8.35;;;;;;;;;;6251799;23;20028;-86
2021/01/09 07:22:37;;;;;;;11.25;6.90;;;;;;;;;;6226620;23;20453;-86
2021/01/09 07:25:05;;;;;;;11.13;7.30;;;;;;;;;;6254935;23;20025;-86
2021/01/09 07:27:37;;;;;;;14.05;8.10;;;;;;;;;;6240933;23;20024;-86
2021/01/09 07:30:07;;;;;;;14.20;8.18;;;;;;;;;;6234403;23;20028;-86
2021/01/09 07:32:37;;;;;;;15.20;7.57;;;;;;;;;;6253668;23;20032;-86
2021/01/09 07:35:07;;;;;;;14.68;7.53;;;;;;;;;;6227614;23;20032;-86
2021/01/09 07:37:43;;;;;;;12.32;8.40;;;;;;;;;;6227490;23;20208;-86
2021/01/09 07:40:14;;;;;;;12.75;7.63;;;;;;;;;;6226419;23;20024;-85
2021/01/09 07:42:41;;;;;;;10.82;7.40;;;;;;;;;;6233429;23;20024;-85
2021/01/09 07:45:16;;;;;;;11.13;7.05;;;;;;;;;;6240088;23;20027;-85
2021/01/09 07:47:44;;;;;;;12.75;7.55;;;;;;;;;;6266655;23;20055;-85
2021/01/09 07:50:11;;;;;;;12.75;7.43;;;;;;;;;;6266090;22;20023;-85
2021/01/09 07:52:41;;;;;;;11.52;7.20;;;;;;;;;;6238667;23;20028;-85
2021/01/09 07:55:10;;;;;;;12.10;7.38;;;;;;;;;;6265320;22;20024;-86
2021/01/09 07:57:39;;;;;;;15.32;8.25;;;;;;;;;;6242328;22;20042;-88
2021/01/09 08:00:07;;;;;;;11.45;8.15;;;;;;;;;;6266760;22;20047;-86
2021/01/09 08:02:36;;;;;;;12.38;9.07;;;;;;;;;;6262525;23;20075;-86
2021/01/09 08:05:07;;;;;;;12.85;8.32;;;;;;;;;;6258925;23;20379;-86
2021/01/09 08:07:40;;;;;;;13.07;8.40;;;;;;;;;;6233140;23;20063;-85
2021/01/09 08:10:14;;;;;;;11.55;7.35;;;;;;;;;;6225455;23;20043;-85
2021/01/09 08:12:41;;;;;;;12.27;7.65;;;;;;;;;;6250658;23;20047;-85
2021/01/09 08:15:11;;;;;;;12.15;8.68;;;;;;;;;;6223975;23;20401;-85
2021/01/09 08:17:38;;;;;;;9.50;7.65;;;;;;;;;;6251536;22;20035;-88
2021/01/09 08:20:08;;;;;;;13.23;7.25;;;;;;;;;;6224523;23;20176;-88
2021/01/09 08:22:37;;;;;;;10.50;7.18;;;;;;;;;;6225478;23;20047;-88
2021/01/09 08:25:07;;;;;;;10.88;7.05;;;;;;;;;;6254011;23;20074;-89
2021/01/09 08:27:33;;;;;;;10.30;6.43;;;;;;;;;;6226566;23;20020;-88
2021/01/09 08:30:01;;;;;;;8.75;6.07;;;;;;;;;;6223894;23;20054;-88
2021/01/09 08:32:27;;;;;;;9.35;6.22;;;;;;;;;;6251625;23;20078;-88
2021/01/09 08:34:57;;;;;;;10.02;7.15;;;;;;;;;;6229484;23;20059;-86
2021/01/09 08:37:23;;;;;;;12.02;7.63;;;;;;;;;;6250733;23;20024;-88
2021/01/09 08:39:50;;;;;;;10.75;7.53;;;;;;;;;;6248978;23;20031;-88
2021/01/09 08:42:19;;;;;;;11.43;8.57;;;;;;;;;;6224601;23;20024;-87
2021/01/09 08:44:47;;;;;;;10.00;8.00;;;;;;;;;;6248970;23;20504;-87
2021/01/09 08:47:18;;;;;;;8.55;6.53;;;;;;;;;;6225600;23;20291;-89
2021/01/09 08:49:46;;;;;;;12.52;6.70;;;;;;;;;;6250017;23;20154;-88
2021/01/09 08:52:16;;;;;;;9.95;7.00;;;;;;;;;;6223083;23;20326;-89
2021/01/09 08:54:44;;;;;;;9.48;6.75;;;;;;;;;;6222706;23;20028;-88
2021/01/09 08:57:12;;;;;;;11.85;7.95;;;;;;;;;;6249120;23;20242;-88
2021/01/09 08:59:39;;;;;;;9.98;7.15;;;;;;;;;;6222113;23;20566;-89
2021/01/09 09:02:10;;;;;;;7.63;6.10;;;;;;;;;;6222030;23;20028;-86
2021/01/09 09:04:41;;;;;;;7.57;5.55;;;;;;;;;;6225242;23;20024;-85
2021/01/09 09:07:09;;;;;;;9.48;5.65;;;;;;;;;;6224403;23;20024;-85
2021/01/09 09:09:39;;;;;;;6.30;5.05;;;;;;;;;;6223654;23;20070;-85
2021/01/09 09:12:06;;;;;;;7.88;4.80;;;;;;;;;;6223540;23;20032;-85
2021/01/09 09:14:37;;;;;;;5.50;4.93;;;;;;;;;;6224479;23;20032;-86
2021/01/09 09:17:05;;;;;;;5.05;4.25;;;;;;;;;;6225557;23;20089;-86
2021/01/09 09:19:36;;;;;;;4.40;3.63;;;;;;;;;;6224328;23;20034;-86
2021/01/09 09:22:03;;;;;;;4.63;4.15;;;;;;;;;;6224598;23;20467;-86
2021/01/09 09:24:40;;;;;;;5.45;4.30;;;;;;;;;;6249551;23;20094;-85
2021/01/09 09:27:25;;;;;;;4.72;3.80;;;;;;;;;;6221920;23;20417;-84
2021/01/09 09:30:11;;;;;;;6.05;3.92;;;;;;;;;;6246548;23;20028;-84
2021/01/09 09:32:38;;;;;;;3.92;3.13;;;;;;;;;;6248635;23;20436;-85
2021/01/09 09:35:20;;;;;;;5.32;3.17;;;;;;;;;;6222772;23;20321;-86
2021/01/09 09:37:47;;;;;;;3.47;3.10;;;;;;;;;;6225708;23;20042;-86
2021/01/09 09:40:22;;;;;;;4.20;2.90;;;;;;;;;;6225056;23;20024;-86
2021/01/09 09:42:49;;;;;;;3.88;3.08;;;;;;;;;;6225146;23;20024;-85
2021/01/09 09:45:16;;;;;;;4.65;3.08;;;;;;;;;;6226231;23;20035;-85
2021/01/09 09:47:47;;;;;;;6.35;3.47;;;;;;;;;;6225487;23;20028;-85
2021/01/09 09:50:19;;;;;;;5.70;3.40;;;;;;;;;;6239425;22;20032;-85
2021/01/09 09:52:56;;;;;;;5.60;3.53;;;;;;;;;;6238088;22;20149;-84
2021/01/09 09:55:22;;;;;;;5.70;3.70;;;;;;;;;;6226300;23;20024;-84
2021/01/09 09:58:03;;;;;;;6.00;4.40;;;;;;;;;;6224823;23;20024;-85
2021/01/09 10:00:29;;;;;;;7.05;4.32;;;;;;;;;;6254137;23;20031;-84
2021/01/09 10:02:59;;;;;;;5.85;4.22;;;;;;;;;;6265050;22;20078;-84
2021/01/09 10:05:31;;;;;;;7.78;4.47;;;;;;;;;;6259380;22;20028;-85
2021/01/09 10:08:16;;;;;;;6.28;4.50;;;;;;;;;;6224761;23;20090;-84
2021/01/09 10:10:43;;;;;;;7.85;4.80;;;;;;;;;;6248401;23;20202;-84
2021/01/09 10:13:10;;;;;;;6.45;4.90;;;;;;;;;;6223370;23;20032;-84
2021/01/09 10:15:37;;;;;;;6.43;4.35;;;;;;;;;;6221973;23;20082;-84
2021/01/09 10:18:03;;;;;;;8.30;4.45;;;;;;;;;;6221470;23;20265;-84
2021/01/09 10:20:30;;;;;;;7.93;5.20;;;;;;;;;;6225919;23;20147;-84
2021/01/09 10:22:56;;;;;;;8.15;4.93;;;;;;;;;;6262270;23;20062;-84
2021/01/09 10:25:24;;;;;;;9.35;5.45;;;;;;;;;;6229931;23;20337;-84
2021/01/09 10:27:51;;;;;;;9.00;4.53;;;;;;;;;;6219931;23;20024;-84
2021/01/09 10:30:18;;;;;;;6.32;4.50;;;;;;;;;;6218753;23;20354;-84
2021/01/09 10:32:45;;;;;;;6.93;5.35;;;;;;;;;;6219698;23;20106;-84
2021/01/09 10:35:11;;;;;;;6.82;4.95;;;;;;;;;;6248029;23;20130;-84
2021/01/09 10:37:38;;;;;;;8.07;5.40;;;;;;;;;;6247017;23;20371;-84
2021/01/09 10:40:06;;;;;;;9.75;5.63;;;;;;;;;;6223040;23;20044;-84
2021/01/09 10:42:32;;;;;;;7.13;5.03;;;;;;;;;;6231856;23;20238;-84
2021/01/09 10:44:59;;;;;;;8.40;5.70;;;;;;;;;;6237194;22;20043;-84
2021/01/09 10:47:25;;;;;;;8.02;5.70;;;;;;;;;;6237760;23;20078;-83
2021/01/09 10:50:15;;;;;;;7.60;5.45;;;;;;;;;;6262221;23;20028;-84
2021/01/09 10:52:41;;;;;;;11.23;5.60;;;;;;;;;;6259957;23;20039;-84
2021/01/09 10:55:07;;;;;;;7.95;5.55;;;;;;;;;;6225775;23;20025;-84
2021/01/09 10:57:34;;;;;;;10.07;5.65;;;;;;;;;;6225117;23;20086;-85
2021/01/09 11:00:07;;;;;;;7.97;5.55;;;;;;;;;;6223214;23;20032;-85
2021/01/09 11:02:33;;;;;;;11.05;5.53;;;;;;;;;;6223288;23;20160;-85
2021/01/09 11:05:00;;;;;;;9.63;5.80;;;;;;;;;;6261410;23;20012;-84
2021/01/09 11:07:30;;;;;;;7.25;5.80;;;;;;;;;;6250403;23;20025;-84
2021/01/09 11:09:57;;;;;;;9.10;6.07;;;;;;;;;;6248029;23;20099;-84
2021/01/09 11:12:23;;;;;;;10.32;6.78;;;;;;;;;;6223819;23;20025;-84
2021/01/09 11:14:52;;;;;;;7.65;5.35;;;;;;;;;;6223325;23;20024;-84
2021/01/09 11:17:19;;;;;;;7.20;5.07;;;;;;;;;;6222509;23;20145;-84
2021/01/09 11:19:46;;;;;;;7.55;5.82;;;;;;;;;;6222916;23;20095;-84
2021/01/09 11:22:16;;;;;;;9.50;5.15;;;;;;;;;;6248510;23;20034;-84
2021/01/09 11:24:42;;;;;;;7.95;5.75;;;;;;;;;;6249825;23;20024;-84
2021/01/09 11:27:08;;;;;;;12.23;6.88;;;;;;;;;;6222443;23;20056;-84
2021/01/09 11:29:40;;;;;;;60.85;27.02;;;;;;;;;;6223139;23;20121;-84
2021/01/09 11:32:06;;;;;;;16.85;8.70;;;;;;;;;;6253961;23;20088;-84
2021/01/09 11:34:33;;;;;;;12.07;8.23;;;;;;;;;;6223064;23;20024;-84
2021/01/09 11:36:59;;;;;;;20.98;14.10;;;;;;;;;;6223250;23;20075;-85
2021/01/09 11:39:32;;;;;;;11.95;8.00;;;;;;;;;;6248655;23;20024;-85
2021/01/09 11:41:58;;;;;;;10.13;6.68;;;;;;;;;;6222960;23;20052;-84
2021/01/09 11:44:25;;;;;;;7.45;5.47;;;;;;;;;;6248026;23;20024;-84
2021/01/09 11:46:53;;;;;;;9.65;6.40;;;;;;;;;;6220023;23;20102;-84
2021/01/09 11:49:25;;;;;;;9.00;6.13;;;;;;;;;;6248749;23;20068;-84
2021/01/09 11:51:53;;;;;;;10.13;6.85;;;;;;;;;;6247160;23;20028;-84
2021/01/09 11:54:19;;;;;;;10.02;6.40;;;;;;;;;;6246156;23;20463;-84
2021/01/09 11:56:46;;;;;;;9.73;6.50;;;;;;;;;;6223338;23;20024;-84
2021/01/09 11:59:15;;;;;;;12.50;7.43;;;;;;;;;;6222227;23;20031;-84
2021/01/09 12:01:49;;;;;;;12.27;7.05;;;;;;;;;;6247056;23;20032;-84
2021/01/09 12:04:16;;;;;;;10.38;6.28;;;;;;;;;;6221567;23;20048;-83
2021/01/09 12:06:43;;;;;;;11.48;7.18;;;;;;;;;;6248707;23;20027;-83
2021/01/09 12:09:17;;;;;;;10.00;6.15;;;;;;;;;;6254004;23;20359;-84
2021/01/09 12:11:47;;;;;;;10.25;6.43;;;;;;;;;;6222927;23;20025;-88
2021/01/09 12:14:14;;;;;;;11.75;5.72;;;;;;;;;;6249043;23;20165;-88
2021/01/09 12:16:40;;;;;;;8.65;5.05;;;;;;;;;;6223151;23;20028;-89
2021/01/09 12:19:11;;;;;;;11.88;5.90;;;;;;;;;;6248285;23;20035;-88
2021/01/09 12:21:42;;;;;;;12.90;6.35;;;;;;;;;;6223806;23;20062;-89
2021/01/09 12:24:08;;;;;;;8.68;5.57;;;;;;;;;;6224415;23;20080;-89
2021/01/09 12:26:36;;;;;;;8.05;5.82;;;;;;;;;;6226358;23;20189;-86
2021/01/09 12:29:02;;;;;;;8.82;5.90;;;;;;;;;;6224842;23;20078;-88
2021/01/09 12:31:33;;;;;;;8.40;5.20;;;;;;;;;;6225496;23;20275;-88
2021/01/09 12:34:13;;;;;;;8.05;5.22;;;;;;;;;;6252471;23;20051;-88
2021/01/09 12:36:40;;;;;;;12.73;5.63;;;;;;;;;;6236152;23;20039;-88
2021/01/09 12:39:06;;;;;;;8.00;5.47;;;;;;;;;;6226616;23;20024;-87
2021/01/09 12:41:37;;;;;;;6.53;4.43;;;;;;;;;;6252694;23;20027;-88
2021/01/09 12:44:04;;;;;;;9.35;4.78;;;;;;;;;;6225506;23;20394;-87
2021/01/09 12:46:42;;;;;;;8.77;4.57;;;;;;;;;;6227524;23;20024;-87
2021/01/09 12:49:14;;;;;;;8.13;4.70;;;;;;;;;;6251702;23;20036;-88
2021/01/09 12:51:43;;;;;;;8.43;5.85;;;;;;;;;;6249606;23;20082;-88
2021/01/09 12:54:10;;;;;;;9.70;5.45;;;;;;;;;;6249530;23;20028;-88
2021/01/09 12:56:37;;;;;;;10.23;6.13;;;;;;;;;;6224984;23;20068;-88
2021/01/09 12:59:05;;;;;;;10.73;6.45;;;;;;;;;;6221945;23;20070;-88
2021/01/09 13:01:35;;;;;;;8.93;5.85;;;;;;;;;;6222118;23;20024;-88
2021/01/09 13:04:02;;;;;;;12.10;6.25;;;;;;;;;;6224047;23;20035;-87
2021/01/09 13:06:34;;;;;;;14.98;6.80;;;;;;;;;;6223447;23;20406;-87
2021/01/09 13:09:21;;;;;;;8.25;6.15;;;;;;;;;;6250000;23;20028;-87
2021/01/09 13:11:52;;;;;;;11.57;6.88;;;;;;;;;;6250252;23;20119;-87
2021/01/09 13:14:20;;;;;;;10.25;6.53;;;;;;;;;;6225640;23;20035;-87
2021/01/09 13:16:52;;;;;;;16.30;6.28;;;;;;;;;;6235037;23;20012;-88
2021/01/09 13:19:22;;;;;;;12.85;6.53;;;;;;;;;;6240629;23;20016;-87
2021/01/09 13:21:57;;;;;;;9.98;5.68;;;;;;;;;;6229239;23;20051;-88
2021/01/09 13:24:29;;;;;;;7.03;5.38;;;;;;;;;;6229158;23;20034;-88
2021/01/09 13:27:01;;;;;;;13.00;5.90;;;;;;;;;;6236873;22;20070;-88
2021/01/09 13:29:29;;;;;;;7.30;5.15;;;;;;;;;;6239375;22;20012;-87
2021/01/09 13:31:55;;;;;;;12.40;4.88;;;;;;;;;;6238129;22;20016;-87
2021/01/09 13:34:30;;;;;;;39.75;8.60;;;;;;;;;;6264116;22;20043;-88
2021/01/09 13:37:09;;;;;;;21.70;6.47;;;;;;;;;;6265047;22;20055;-87
2021/01/09 13:39:38;;;;;;;8.27;5.60;;;;;;;;;;6262576;22;20032;-88
2021/01/09 13:42:06;;;;;;;8.02;5.72;;;;;;;;;;6240605;23;20023;-88
2021/01/09 13:44:34;;;;;;;8.00;5.72;;;;;;;;;;6235100;23;20028;-88
2021/01/09 13:47:12;;;;;;;8.77;5.57;;;;;;;;;;6227543;23;20202;-88
2021/01/09 13:49:42;;;;;;;10.00;6.00;;;;;;;;;;6225263;23;20031;-88
2021/01/09 13:52:26;;;;;;;22.20;18.98;;;;;;;;;;6251352;23;20107;-88
2021/01/09 13:54:52;;;;;;;16.30;12.63;;;;;;;;;;6224482;23;20176;-88
2021/01/09 13:57:19;;;;;;;9.13;6.78;;;;;;;;;;6251543;22;20024;-88
2021/01/09 13:59:45;;;;;;;10.30;5.97;;;;;;;;;;6253068;23;20076;-88
2021/01/09 14:02:12;;;;;;;7.20;5.07;;;;;;;;;;6226201;23;20115;-88
2021/01/09 14:04:43;;;;;;;10.85;6.03;;;;;;;;;;6254247;23;20034;-88
2021/01/09 14:07:11;;;;;;;9.38;5.88;;;;;;;;;;6254633;23;20032;-87
2021/01/09 14:09:37;;;;;;;8.98;5.72;;;;;;;;;;6252174;23;20047;-88
2021/01/09 14:12:06;;;;;;;8.25;5.63;;;;;;;;;;6226714;23;20024;-88
2021/01/09 14:14:33;;;;;;;7.85;5.55;;;;;;;;;;6225813;23;20036;-88
2021/01/09 14:17:00;;;;;;;11.18;5.80;;;;;;;;;;6224891;23;20024;-88
2021/01/09 14:19:27;;;;;;;6.13;4.75;;;;;;;;;;6224464;23;20024;-88
2021/01/09 14:21:58;;;;;;;9.68;4.70;;;;;;;;;;6225340;23;20028;-88
2021/01/09 14:24:25;;;;;;;7.50;4.78;;;;;;;;;;6252206;23;20028;-88
2021/01/09 14:26:57;;;;;;;7.05;5.03;;;;;;;;;;6227645;23;20024;-88
2021/01/09 14:29:28;;;;;;;6.60;5.00;;;;;;;;;;6251742;23;20035;-88
2021/01/09 14:32:06;;;;;;;6.82;5.00;;;;;;;;;;6250901;23;20085;-88
2021/01/09 14:34:33;;;;;;;8.38;6.13;;;;;;;;;;6253465;23;20051;-88
2021/01/09 14:37:02;;;;;;;23.25;10.70;;;;;;;;;;6228683;23;20103;-87
2021/01/09 14:39:29;;;;;;;11.20;6.82;;;;;;;;;;6252054;23;20087;-87
2021/01/09 14:41:57;;;;;;;8.85;5.35;;;;;;;;;;6252053;23;20028;-87